sensor_id;sensor_type;location;lat;lon;timestamp;temperature;humidity
39045;DHT22;52192;52.002;5.956;2022-10-14T00:00:38;13.70;83.70
39045;DHT22;52192;52.002;5.956;2022-10-14T00:03:04;13.80;83.50
39045;DHT22;52192;52.002;5.956;2022-10-14T00:05:30;13.80;83.50
39045;DHT22;52192;52.002;5.956;2022-10-14T00:07:56;13.80;83.50
39045;DHT22;52192;52.002;5.956;2022-10-14T00:10:21;13.70;83.40
39045;DHT22;52192;52.002;5.956;2022-10-14T00:12:47;13.70;83.50
39045;DHT22;52192;52.002;5.956;2022-10-14T00:15:15;13.70;83.70
39045;DHT22;52192;52.002;5.956;2022-10-14T00:17:41;13.70;83.70
39045;DHT22;52192;52.002;5.956;2022-10-14T00:20:07;13.70;83.70
39045;DHT22;52192;52.002;5.956;2022-10-14T00:22:33;13.70;83.60
39045;DHT22;52192;52.002;5.956;2022-10-14T00:24:58;13.70;83.70
39045;DHT22;52192;52.002;5.956;2022-10-14T00:27:24;13.70;83.80
39045;DHT22;52192;52.002;5.956;2022-10-14T00:29:50;13.60;83.70
39045;DHT22;52192;52.002;5.956;2022-10-14T00:32:15;13.70;83.80
39045;DHT22;52192;52.002;5.956;2022-10-14T00:34:42;13.70;83.70
39045;DHT22;52192;52.002;5.956;2022-10-14T00:37:08;13.70;83.70
39045;DHT22;52192;52.002;5.956;2022-10-14T00:39:34;13.70;83.60
39045;DHT22;52192;52.002;5.956;2022-10-14T00:42:00;13.70;83.70
39045;DHT22;52192;52.002;5.956;2022-10-14T00:46:51;13.80;83.60
39045;DHT22;52192;52.002;5.956;2022-10-14T00:49:24;13.80;83.50
39045;DHT22;52192;52.002;5.956;2022-10-14T00:51:53;13.80;83.40
39045;DHT22;52192;52.002;5.956;2022-10-14T00:54:22;13.80;83.40
39045;DHT22;52192;52.002;5.956;2022-10-14T00:56:49;13.80;83.40
39045;DHT22;52192;52.002;5.956;2022-10-14T00:59:15;13.80;83.50
39045;DHT22;52192;52.002;5.956;2022-10-14T01:01:41;13.70;83.50
39045;DHT22;52192;52.002;5.956;2022-10-14T01:04:07;13.70;83.60
39045;DHT22;52192;52.002;5.956;2022-10-14T01:25:33;13.50;84.10
39045;DHT22;52192;52.002;5.956;2022-10-14T01:28:19;13.50;84.00
39045;DHT22;52192;52.002;5.956;2022-10-14T01:30:49;13.50;84.00
39045;DHT22;52192;52.002;5.956;2022-10-14T01:33:22;13.60;84.00
39045;DHT22;52192;52.002;5.956;2022-10-14T01:38:37;13.60;83.80
39045;DHT22;52192;52.002;5.956;2022-10-14T01:41:24;13.60;83.90
39045;DHT22;52192;52.002;5.956;2022-10-14T01:43:52;13.60;83.90
39045;DHT22;52192;52.002;5.956;2022-10-14T01:46:21;13.60;83.80
39045;DHT22;52192;52.002;5.956;2022-10-14T01:48:52;13.60;83.90
39045;DHT22;52192;52.002;5.956;2022-10-14T01:51:32;13.60;83.90
39045;DHT22;52192;52.002;5.956;2022-10-14T01:54:06;13.60;83.90
39045;DHT22;52192;52.002;5.956;2022-10-14T01:56:34;13.60;83.90
39045;DHT22;52192;52.002;5.956;2022-10-14T01:59:01;13.60;83.90
39045;DHT22;52192;52.002;5.956;2022-10-14T02:01:27;13.60;83.90
39045;DHT22;52192;52.002;5.956;2022-10-14T02:03:53;13.60;83.90
39045;DHT22;52192;52.002;5.956;2022-10-14T02:06:29;13.60;83.90
39045;DHT22;52192;52.002;5.956;2022-10-14T02:11:25;13.60;83.80
39045;DHT22;52192;52.002;5.956;2022-10-14T02:19:41;13.60;83.70
39045;DHT22;52192;52.002;5.956;2022-10-14T02:24:54;13.60;83.60
39045;DHT22;52192;52.002;5.956;2022-10-14T02:27:24;13.60;83.70
39045;DHT22;52192;52.002;5.956;2022-10-14T02:29:51;13.70;83.70
39045;DHT22;52192;52.002;5.956;2022-10-14T02:32:19;13.70;83.70
39045;DHT22;52192;52.002;5.956;2022-10-14T02:34:48;13.70;83.60
39045;DHT22;52192;52.002;5.956;2022-10-14T02:37:16;13.60;83.60
39045;DHT22;52192;52.002;5.956;2022-10-14T02:40:10;13.60;83.70
39045;DHT22;52192;52.002;5.956;2022-10-14T02:42:34;13.60;83.70
39045;DHT22;52192;52.002;5.956;2022-10-14T02:45:00;13.60;83.70
39045;DHT22;52192;52.002;5.956;2022-10-14T02:47:26;13.60;83.70
39045;DHT22;52192;52.002;5.956;2022-10-14T02:49:52;13.60;83.70
39045;DHT22;52192;52.002;5.956;2022-10-14T02:52:18;13.60;83.70
39045;DHT22;52192;52.002;5.956;2022-10-14T02:54:44;13.60;83.60
39045;DHT22;52192;52.002;5.956;2022-10-14T02:57:10;13.70;83.70
39045;DHT22;52192;52.002;5.956;2022-10-14T02:59:36;13.60;83.60
39045;DHT22;52192;52.002;5.956;2022-10-14T03:02:02;13.70;83.60
39045;DHT22;52192;52.002;5.956;2022-10-14T03:04:27;13.70;83.60
39045;DHT22;52192;52.002;5.956;2022-10-14T03:06:53;13.70;83.60
39045;DHT22;52192;52.002;5.956;2022-10-14T03:09:19;13.70;83.60
39045;DHT22;52192;52.002;5.956;2022-10-14T03:11:45;13.60;83.50
39045;DHT22;52192;52.002;5.956;2022-10-14T03:14:10;13.70;83.60
39045;DHT22;52192;52.002;5.956;2022-10-14T03:16:36;13.70;83.60
39045;DHT22;52192;52.002;5.956;2022-10-14T03:19:02;13.60;83.60
39045;DHT22;52192;52.002;5.956;2022-10-14T03:21:28;13.60;83.70
39045;DHT22;52192;52.002;5.956;2022-10-14T03:23:53;13.60;83.60
39045;DHT22;52192;52.002;5.956;2022-10-14T03:26:19;13.60;83.60
39045;DHT22;52192;52.002;5.956;2022-10-14T03:28:45;13.60;83.60
39045;DHT22;52192;52.002;5.956;2022-10-14T03:31:11;13.60;83.60
39045;DHT22;52192;52.002;5.956;2022-10-14T03:33:36;13.60;83.60
39045;DHT22;52192;52.002;5.956;2022-10-14T03:36:02;13.60;83.70
39045;DHT22;52192;52.002;5.956;2022-10-14T03:38:28;13.60;83.80
39045;DHT22;52192;52.002;5.956;2022-10-14T03:40:54;13.60;83.70
39045;DHT22;52192;52.002;5.956;2022-10-14T03:43:20;13.60;83.70
39045;DHT22;52192;52.002;5.956;2022-10-14T03:45:46;13.60;83.80
39045;DHT22;52192;52.002;5.956;2022-10-14T03:48:11;13.60;83.90
39045;DHT22;52192;52.002;5.956;2022-10-14T03:50:37;13.50;83.90
39045;DHT22;52192;52.002;5.956;2022-10-14T03:53:03;13.60;84.00
39045;DHT22;52192;52.002;5.956;2022-10-14T03:55:29;13.60;84.00
39045;DHT22;52192;52.002;5.956;2022-10-14T03:57:54;13.60;84.00
39045;DHT22;52192;52.002;5.956;2022-10-14T04:00:20;13.60;84.00
39045;DHT22;52192;52.002;5.956;2022-10-14T04:02:46;13.60;83.90
39045;DHT22;52192;52.002;5.956;2022-10-14T04:05:12;13.60;83.90
39045;DHT22;52192;52.002;5.956;2022-10-14T04:07:38;13.70;83.90
39045;DHT22;52192;52.002;5.956;2022-10-14T04:10:04;13.70;84.00
39045;DHT22;52192;52.002;5.956;2022-10-14T04:12:31;13.70;83.90
39045;DHT22;52192;52.002;5.956;2022-10-14T04:14:56;13.70;83.90
39045;DHT22;52192;52.002;5.956;2022-10-14T04:17:25;13.70;83.90
39045;DHT22;52192;52.002;5.956;2022-10-14T04:19:52;13.70;83.80
39045;DHT22;52192;52.002;5.956;2022-10-14T04:22:18;13.70;83.80
39045;DHT22;52192;52.002;5.956;2022-10-14T04:24:44;13.70;83.80
39045;DHT22;52192;52.002;5.956;2022-10-14T04:27:10;13.70;83.90
39045;DHT22;52192;52.002;5.956;2022-10-14T04:29:35;13.70;83.90
39045;DHT22;52192;52.002;5.956;2022-10-14T04:32:01;13.60;84.00
39045;DHT22;52192;52.002;5.956;2022-10-14T04:34:27;13.70;84.00
39045;DHT22;52192;52.002;5.956;2022-10-14T04:36:53;13.70;84.10
39045;DHT22;52192;52.002;5.956;2022-10-14T04:39:19;13.70;84.00
39045;DHT22;52192;52.002;5.956;2022-10-14T04:41:44;13.70;84.10
39045;DHT22;52192;52.002;5.956;2022-10-14T04:44:10;13.70;84.20
39045;DHT22;52192;52.002;5.956;2022-10-14T04:46:36;13.70;84.10
39045;DHT22;52192;52.002;5.956;2022-10-14T04:49:02;13.70;84.10
39045;DHT22;52192;52.002;5.956;2022-10-14T04:51:27;13.70;84.10
39045;DHT22;52192;52.002;5.956;2022-10-14T04:53:53;13.70;84.10
39045;DHT22;52192;52.002;5.956;2022-10-14T04:56:19;13.70;84.10
39045;DHT22;52192;52.002;5.956;2022-10-14T04:58:44;13.80;84.20
39045;DHT22;52192;52.002;5.956;2022-10-14T05:01:10;13.70;84.10
39045;DHT22;52192;52.002;5.956;2022-10-14T05:03:35;13.70;84.10
39045;DHT22;52192;52.002;5.956;2022-10-14T05:06:01;13.80;84.20
39045;DHT22;52192;52.002;5.956;2022-10-14T05:08:27;13.80;84.10
39045;DHT22;52192;52.002;5.956;2022-10-14T05:10:52;13.80;84.10
39045;DHT22;52192;52.002;5.956;2022-10-14T05:13:18;13.80;84.20
39045;DHT22;52192;52.002;5.956;2022-10-14T05:15:44;13.80;84.10
39045;DHT22;52192;52.002;5.956;2022-10-14T05:18:12;13.80;84.10
39045;DHT22;52192;52.002;5.956;2022-10-14T05:20:38;13.80;84.10
39045;DHT22;52192;52.002;5.956;2022-10-14T05:23:05;13.80;84.10
39045;DHT22;52192;52.002;5.956;2022-10-14T05:25:30;13.80;84.10
39045;DHT22;52192;52.002;5.956;2022-10-14T05:27:56;13.80;84.20
39045;DHT22;52192;52.002;5.956;2022-10-14T05:30:22;13.80;84.20
39045;DHT22;52192;52.002;5.956;2022-10-14T05:32:48;13.80;84.20
39045;DHT22;52192;52.002;5.956;2022-10-14T05:35:13;13.80;84.20
39045;DHT22;52192;52.002;5.956;2022-10-14T05:37:39;13.90;84.20
39045;DHT22;52192;52.002;5.956;2022-10-14T05:40:06;13.90;84.10
39045;DHT22;52192;52.002;5.956;2022-10-14T05:42:31;13.90;84.10
39045;DHT22;52192;52.002;5.956;2022-10-14T05:44:57;13.90;84.20
39045;DHT22;52192;52.002;5.956;2022-10-14T05:47:23;13.90;84.20
39045;DHT22;52192;52.002;5.956;2022-10-14T05:49:48;13.90;84.20
39045;DHT22;52192;52.002;5.956;2022-10-14T05:52:14;13.90;84.20
39045;DHT22;52192;52.002;5.956;2022-10-14T05:54:40;13.90;84.20
39045;DHT22;52192;52.002;5.956;2022-10-14T05:57:05;13.90;84.30
39045;DHT22;52192;52.002;5.956;2022-10-14T05:59:31;13.90;84.30
39045;DHT22;52192;52.002;5.956;2022-10-14T06:01:59;13.90;84.30
39045;DHT22;52192;52.002;5.956;2022-10-14T06:04:25;14.00;84.30
39045;DHT22;52192;52.002;5.956;2022-10-14T06:06:50;14.00;84.30
39045;DHT22;52192;52.002;5.956;2022-10-14T06:09:16;14.00;84.30
39045;DHT22;52192;52.002;5.956;2022-10-14T06:11:42;14.00;84.30
39045;DHT22;52192;52.002;5.956;2022-10-14T06:14:08;14.00;84.30
39045;DHT22;52192;52.002;5.956;2022-10-14T06:16:34;14.00;84.40
39045;DHT22;52192;52.002;5.956;2022-10-14T06:19:00;14.00;84.30
39045;DHT22;52192;52.002;5.956;2022-10-14T06:21:26;14.10;84.30
39045;DHT22;52192;52.002;5.956;2022-10-14T06:23:51;14.10;84.30
39045;DHT22;52192;52.002;5.956;2022-10-14T06:26:17;14.10;84.30
39045;DHT22;52192;52.002;5.956;2022-10-14T06:28:43;14.10;84.30
39045;DHT22;52192;52.002;5.956;2022-10-14T06:31:08;14.10;84.30
39045;DHT22;52192;52.002;5.956;2022-10-14T06:33:34;14.10;84.30
39045;DHT22;52192;52.002;5.956;2022-10-14T06:36:01;14.10;84.40
39045;DHT22;52192;52.002;5.956;2022-10-14T06:38:27;14.10;84.40
39045;DHT22;52192;52.002;5.956;2022-10-14T06:40:53;14.20;84.50
39045;DHT22;52192;52.002;5.956;2022-10-14T06:43:20;14.20;84.40
39045;DHT22;52192;52.002;5.956;2022-10-14T06:45:47;14.20;84.40
39045;DHT22;52192;52.002;5.956;2022-10-14T06:48:12;14.20;84.50
39045;DHT22;52192;52.002;5.956;2022-10-14T06:50:39;14.20;84.40
39045;DHT22;52192;52.002;5.956;2022-10-14T06:53:04;14.20;84.40
39045;DHT22;52192;52.002;5.956;2022-10-14T06:55:30;14.30;84.40
39045;DHT22;52192;52.002;5.956;2022-10-14T06:57:56;14.30;84.40
39045;DHT22;52192;52.002;5.956;2022-10-14T07:00:22;14.30;84.50
39045;DHT22;52192;52.002;5.956;2022-10-14T07:02:48;14.40;84.50
39045;DHT22;52192;52.002;5.956;2022-10-14T07:05:13;14.40;84.50
39045;DHT22;52192;52.002;5.956;2022-10-14T07:07:39;14.40;84.50
39045;DHT22;52192;52.002;5.956;2022-10-14T07:10:05;14.40;84.40
39045;DHT22;52192;52.002;5.956;2022-10-14T07:12:31;14.40;84.50
39045;DHT22;52192;52.002;5.956;2022-10-14T07:14:57;14.50;84.60
39045;DHT22;52192;52.002;5.956;2022-10-14T07:17:22;14.50;84.70
39045;DHT22;52192;52.002;5.956;2022-10-14T07:19:48;14.60;84.70
39045;DHT22;52192;52.002;5.956;2022-10-14T07:22:14;14.50;84.70
39045;DHT22;52192;52.002;5.956;2022-10-14T07:24:42;14.60;84.70
39045;DHT22;52192;52.002;5.956;2022-10-14T07:27:08;14.60;84.70
39045;DHT22;52192;52.002;5.956;2022-10-14T07:29:34;14.70;84.70
39045;DHT22;52192;52.002;5.956;2022-10-14T07:32:00;14.70;84.60
39045;DHT22;52192;52.002;5.956;2022-10-14T07:34:25;14.70;84.60
39045;DHT22;52192;52.002;5.956;2022-10-14T07:36:51;14.80;84.60
39045;DHT22;52192;52.002;5.956;2022-10-14T07:39:17;14.80;84.80
39045;DHT22;52192;52.002;5.956;2022-10-14T07:41:43;14.80;84.80
39045;DHT22;52192;52.002;5.956;2022-10-14T07:44:09;14.80;84.70
39045;DHT22;52192;52.002;5.956;2022-10-14T07:46:39;14.80;84.80
39045;DHT22;52192;52.002;5.956;2022-10-14T07:49:09;14.80;84.80
39045;DHT22;52192;52.002;5.956;2022-10-14T07:51:36;14.80;84.90
39045;DHT22;52192;52.002;5.956;2022-10-14T07:54:03;14.90;85.30
39045;DHT22;52192;52.002;5.956;2022-10-14T07:56:30;14.90;85.40
39045;DHT22;52192;52.002;5.956;2022-10-14T07:58:57;14.90;85.60
39045;DHT22;52192;52.002;5.956;2022-10-14T08:01:22;14.90;85.60
39045;DHT22;52192;52.002;5.956;2022-10-14T08:03:49;14.90;85.50
39045;DHT22;52192;52.002;5.956;2022-10-14T08:06:15;15.00;85.40
39045;DHT22;52192;52.002;5.956;2022-10-14T08:08:41;15.00;85.40
39045;DHT22;52192;52.002;5.956;2022-10-14T08:11:31;15.00;85.40
39045;DHT22;52192;52.002;5.956;2022-10-14T08:13:57;15.00;85.50
39045;DHT22;52192;52.002;5.956;2022-10-14T08:16:29;15.00;85.50
39045;DHT22;52192;52.002;5.956;2022-10-14T08:18:57;15.10;85.60
39045;DHT22;52192;52.002;5.956;2022-10-14T08:21:26;15.10;85.50
39045;DHT22;52192;52.002;5.956;2022-10-14T08:23:51;15.10;85.50
39045;DHT22;52192;52.002;5.956;2022-10-14T08:28:54;15.10;85.60
39045;DHT22;52192;52.002;5.956;2022-10-14T08:31:20;15.10;85.60
39045;DHT22;52192;52.002;5.956;2022-10-14T08:33:46;15.20;85.50
39045;DHT22;52192;52.002;5.956;2022-10-14T08:36:13;15.20;85.50
39045;DHT22;52192;52.002;5.956;2022-10-14T08:38:38;15.20;85.50
39045;DHT22;52192;52.002;5.956;2022-10-14T08:41:29;15.30;85.60
39045;DHT22;52192;52.002;5.956;2022-10-14T08:44:19;15.20;85.50
39045;DHT22;52192;52.002;5.956;2022-10-14T08:46:55;15.30;85.70
39045;DHT22;52192;52.002;5.956;2022-10-14T08:52:19;15.30;85.70
39045;DHT22;52192;52.002;5.956;2022-10-14T08:55:03;15.30;85.80
39045;DHT22;52192;52.002;5.956;2022-10-14T08:57:42;15.30;85.80
39045;DHT22;52192;52.002;5.956;2022-10-14T09:00:11;15.30;85.70
39045;DHT22;52192;52.002;5.956;2022-10-14T09:02:45;15.30;85.60
39045;DHT22;52192;52.002;5.956;2022-10-14T09:05:16;15.40;85.70
39045;DHT22;52192;52.002;5.956;2022-10-14T09:07:43;15.40;85.60
39045;DHT22;52192;52.002;5.956;2022-10-14T09:10:22;15.40;85.60
39045;DHT22;52192;52.002;5.956;2022-10-14T09:12:50;15.50;85.70
39045;DHT22;52192;52.002;5.956;2022-10-14T09:15:26;15.50;85.70
39045;DHT22;52192;52.002;5.956;2022-10-14T09:18:10;15.50;85.70
39045;DHT22;52192;52.002;5.956;2022-10-14T09:20:42;15.50;85.70
39045;DHT22;52192;52.002;5.956;2022-10-14T09:25:46;15.50;85.80
39045;DHT22;52192;52.002;5.956;2022-10-14T09:28:13;15.50;85.80
39045;DHT22;52192;52.002;5.956;2022-10-14T09:30:38;15.60;86.10
39045;DHT22;52192;52.002;5.956;2022-10-14T09:33:05;15.60;86.20
39045;DHT22;52192;52.002;5.956;2022-10-14T09:35:40;15.60;86.10
39045;DHT22;52192;52.002;5.956;2022-10-14T09:38:06;15.60;86.00
39045;DHT22;52192;52.002;5.956;2022-10-14T09:40:43;15.60;86.20
39045;DHT22;52192;52.002;5.956;2022-10-14T09:48:41;15.70;86.00
39045;DHT22;52192;52.002;5.956;2022-10-14T09:51:22;15.80;86.00
39045;DHT22;52192;52.002;5.956;2022-10-14T09:53:52;15.70;86.00
39045;DHT22;52192;52.002;5.956;2022-10-14T09:56:35;15.80;86.00
39045;DHT22;52192;52.002;5.956;2022-10-14T09:59:20;15.80;85.90
39045;DHT22;52192;52.002;5.956;2022-10-14T10:01:50;15.80;85.80
39045;DHT22;52192;52.002;5.956;2022-10-14T10:06:55;15.90;86.20
39045;DHT22;52192;52.002;5.956;2022-10-14T10:09:20;15.90;86.20
39045;DHT22;52192;52.002;5.956;2022-10-14T10:11:47;15.90;86.10
39045;DHT22;52192;52.002;5.956;2022-10-14T10:19:40;16.00;86.40
39045;DHT22;52192;52.002;5.956;2022-10-14T10:38:59;16.10;86.20
39045;DHT22;52192;52.002;5.956;2022-10-14T10:44:39;16.10;86.30
39045;DHT22;52192;52.002;5.956;2022-10-14T10:50:45;16.20;86.20
39045;DHT22;52192;52.002;5.956;2022-10-14T10:53:01;16.30;86.20
39045;DHT22;52192;52.002;5.956;2022-10-14T10:58:25;16.30;86.20
39045;DHT22;52192;52.002;5.956;2022-10-14T11:03:50;16.40;86.20
39045;DHT22;52192;52.002;5.956;2022-10-14T11:06:32;16.40;86.20
39045;DHT22;52192;52.002;5.956;2022-10-14T11:09:27;16.50;86.20
39045;DHT22;52192;52.002;5.956;2022-10-14T11:12:21;16.50;86.10
39045;DHT22;52192;52.002;5.956;2022-10-14T11:15:07;16.60;86.10
39045;DHT22;52192;52.002;5.956;2022-10-14T11:20:30;16.60;85.70
39045;DHT22;52192;52.002;5.956;2022-10-14T11:23:41;16.60;85.80
39045;DHT22;52192;52.002;5.956;2022-10-14T11:47:50;16.50;86.10
39045;DHT22;52192;52.002;5.956;2022-10-14T11:50:21;16.50;86.20
39045;DHT22;52192;52.002;5.956;2022-10-14T11:55:41;16.50;86.00
39045;DHT22;52192;52.002;5.956;2022-10-14T11:58:17;16.50;86.00
39045;DHT22;52192;52.002;5.956;2022-10-14T12:00:46;16.50;86.20
39045;DHT22;52192;52.002;5.956;2022-10-14T12:11:46;16.60;86.30
39045;DHT22;52192;52.002;5.956;2022-10-14T12:16:54;16.60;86.40
39045;DHT22;52192;52.002;5.956;2022-10-14T12:19:25;16.50;86.40
39045;DHT22;52192;52.002;5.956;2022-10-14T12:21:59;16.50;86.40
39045;DHT22;52192;52.002;5.956;2022-10-14T12:24:36;16.50;86.60
39045;DHT22;52192;52.002;5.956;2022-10-14T12:27:07;16.50;86.60
39045;DHT22;52192;52.002;5.956;2022-10-14T12:29:37;16.50;86.60
39045;DHT22;52192;52.002;5.956;2022-10-14T12:32:30;16.60;86.70
39045;DHT22;52192;52.002;5.956;2022-10-14T12:35:00;16.60;86.60
39045;DHT22;52192;52.002;5.956;2022-10-14T12:37:50;16.60;86.60
39045;DHT22;52192;52.002;5.956;2022-10-14T12:40:22;16.60;86.50
39045;DHT22;52192;52.002;5.956;2022-10-14T12:42:53;16.60;86.90
39045;DHT22;52192;52.002;5.956;2022-10-14T12:45:24;16.60;86.90
39045;DHT22;52192;52.002;5.956;2022-10-14T12:48:19;16.60;86.90
39045;DHT22;52192;52.002;5.956;2022-10-14T12:50:47;16.70;86.90
39045;DHT22;52192;52.002;5.956;2022-10-14T12:53:26;16.70;86.90
39045;DHT22;52192;52.002;5.956;2022-10-14T12:55:58;16.70;86.80
39045;DHT22;52192;52.002;5.956;2022-10-14T12:58:35;16.80;86.80
39045;DHT22;52192;52.002;5.956;2022-10-14T13:01:15;16.80;86.80
39045;DHT22;52192;52.002;5.956;2022-10-14T13:03:51;16.80;86.80
39045;DHT22;52192;52.002;5.956;2022-10-14T13:06:36;16.80;86.90
39045;DHT22;52192;52.002;5.956;2022-10-14T13:11:39;16.90;86.90
39045;DHT22;52192;52.002;5.956;2022-10-14T13:21:59;16.90;86.80
39045;DHT22;52192;52.002;5.956;2022-10-14T13:24:32;16.90;87.10
39045;DHT22;52192;52.002;5.956;2022-10-14T13:27:34;16.80;87.30
39045;DHT22;52192;52.002;5.956;2022-10-14T13:30:15;16.80;87.30
39045;DHT22;52192;52.002;5.956;2022-10-14T13:32:56;16.80;87.20
39045;DHT22;52192;52.002;5.956;2022-10-14T13:35:29;16.90;87.20
39045;DHT22;52192;52.002;5.956;2022-10-14T13:38:05;16.90;87.30
39045;DHT22;52192;52.002;5.956;2022-10-14T13:40:35;16.90;87.20
39045;DHT22;52192;52.002;5.956;2022-10-14T13:43:07;16.90;87.30
39045;DHT22;52192;52.002;5.956;2022-10-14T13:45:43;16.90;87.30
39045;DHT22;52192;52.002;5.956;2022-10-14T13:48:28;16.90;87.30
39045;DHT22;52192;52.002;5.956;2022-10-14T13:53:56;16.90;87.20
39045;DHT22;52192;52.002;5.956;2022-10-14T13:56:27;16.90;87.20
39045;DHT22;52192;52.002;5.956;2022-10-14T13:58:54;16.90;87.30
39045;DHT22;52192;52.002;5.956;2022-10-14T14:01:22;16.90;87.40
39045;DHT22;52192;52.002;5.956;2022-10-14T14:03:55;16.90;87.50
39045;DHT22;52192;52.002;5.956;2022-10-14T14:06:23;16.90;87.60
39045;DHT22;52192;52.002;5.956;2022-10-14T14:09:00;16.90;87.70
39045;DHT22;52192;52.002;5.956;2022-10-14T14:11:29;16.90;87.70
39045;DHT22;52192;52.002;5.956;2022-10-14T14:14:10;16.90;88.00
39045;DHT22;52192;52.002;5.956;2022-10-14T14:16:47;16.90;87.90
39045;DHT22;52192;52.002;5.956;2022-10-14T14:19:19;16.90;87.90
39045;DHT22;52192;52.002;5.956;2022-10-14T14:21:45;16.90;87.90
39045;DHT22;52192;52.002;5.956;2022-10-14T14:24:22;17.00;87.80
39045;DHT22;52192;52.002;5.956;2022-10-14T14:26:52;17.00;87.80
39045;DHT22;52192;52.002;5.956;2022-10-14T14:29:21;17.00;87.80
39045;DHT22;52192;52.002;5.956;2022-10-14T14:31:50;17.10;87.90
39045;DHT22;52192;52.002;5.956;2022-10-14T14:34:18;17.10;87.70
39045;DHT22;52192;52.002;5.956;2022-10-14T14:36:44;17.10;87.70
39045;DHT22;52192;52.002;5.956;2022-10-14T14:39:20;17.10;87.70
39045;DHT22;52192;52.002;5.956;2022-10-14T14:41:51;17.20;87.80
39045;DHT22;52192;52.002;5.956;2022-10-14T14:44:30;17.10;87.70
39045;DHT22;52192;52.002;5.956;2022-10-14T14:46:59;17.20;87.70
39045;DHT22;52192;52.002;5.956;2022-10-14T14:49:32;17.10;87.70
39045;DHT22;52192;52.002;5.956;2022-10-14T14:51:58;17.10;87.70
39045;DHT22;52192;52.002;5.956;2022-10-14T14:54:25;17.10;87.70
39045;DHT22;52192;52.002;5.956;2022-10-14T14:59:39;17.10;88.00
39045;DHT22;52192;52.002;5.956;2022-10-14T15:02:17;17.10;88.10
39045;DHT22;52192;52.002;5.956;2022-10-14T15:04:44;17.00;88.20
39045;DHT22;52192;52.002;5.956;2022-10-14T15:07:20;16.90;88.40
39045;DHT22;52192;52.002;5.956;2022-10-14T15:09:50;16.90;88.50
39045;DHT22;52192;52.002;5.956;2022-10-14T15:14:54;16.80;88.40
39045;DHT22;52192;52.002;5.956;2022-10-14T15:19:47;16.80;88.30
39045;DHT22;52192;52.002;5.956;2022-10-14T15:30:25;16.90;88.10
39045;DHT22;52192;52.002;5.956;2022-10-14T15:35:41;16.90;87.90
39045;DHT22;52192;52.002;5.956;2022-10-14T15:38:12;17.00;87.90
39045;DHT22;52192;52.002;5.956;2022-10-14T15:40:39;17.00;87.70
39045;DHT22;52192;52.002;5.956;2022-10-14T15:43:11;17.00;87.60
39045;DHT22;52192;52.002;5.956;2022-10-14T15:45:38;17.00;87.60
39045;DHT22;52192;52.002;5.956;2022-10-14T15:48:05;17.00;87.60
39045;DHT22;52192;52.002;5.956;2022-10-14T15:50:31;17.00;87.60
39045;DHT22;52192;52.002;5.956;2022-10-14T15:52:57;17.00;87.60
39045;DHT22;52192;52.002;5.956;2022-10-14T15:55:27;17.00;87.50
39045;DHT22;52192;52.002;5.956;2022-10-14T15:58:00;17.00;87.40
39045;DHT22;52192;52.002;5.956;2022-10-14T16:00:26;16.90;87.40
39045;DHT22;52192;52.002;5.956;2022-10-14T16:02:56;16.90;87.50
39045;DHT22;52192;52.002;5.956;2022-10-14T16:05:27;16.90;87.50
39045;DHT22;52192;52.002;5.956;2022-10-14T16:07:54;16.90;88.00
39045;DHT22;52192;52.002;5.956;2022-10-14T16:10:22;16.90;87.30
39045;DHT22;52192;52.002;5.956;2022-10-14T16:12:48;16.90;87.30
39045;DHT22;52192;52.002;5.956;2022-10-14T16:17:43;16.90;87.20
39045;DHT22;52192;52.002;5.956;2022-10-14T16:20:09;16.90;87.20
39045;DHT22;52192;52.002;5.956;2022-10-14T16:22:36;16.90;87.20
39045;DHT22;52192;52.002;5.956;2022-10-14T16:25:02;16.90;87.10
39045;DHT22;52192;52.002;5.956;2022-10-14T16:27:27;16.90;87.10
39045;DHT22;52192;52.002;5.956;2022-10-14T16:29:53;16.80;87.00
39045;DHT22;52192;52.002;5.956;2022-10-14T16:32:18;16.70;87.10
39045;DHT22;52192;52.002;5.956;2022-10-14T16:34:44;16.70;87.20
39045;DHT22;52192;52.002;5.956;2022-10-14T16:37:10;16.70;87.20
39045;DHT22;52192;52.002;5.956;2022-10-14T16:39:36;16.70;87.30
39045;DHT22;52192;52.002;5.956;2022-10-14T16:42:02;16.70;87.20
39045;DHT22;52192;52.002;5.956;2022-10-14T16:44:28;16.60;87.10
39045;DHT22;52192;52.002;5.956;2022-10-14T16:46:55;16.60;87.10
39045;DHT22;52192;52.002;5.956;2022-10-14T16:49:42;16.60;87.10
39045;DHT22;52192;52.002;5.956;2022-10-14T16:52:09;16.60;87.20
39045;DHT22;52192;52.002;5.956;2022-10-14T16:54:35;16.50;87.20
39045;DHT22;52192;52.002;5.956;2022-10-14T16:57:01;16.50;87.20
39045;DHT22;52192;52.002;5.956;2022-10-14T16:59:27;16.50;87.20
39045;DHT22;52192;52.002;5.956;2022-10-14T17:01:53;16.50;87.20
39045;DHT22;52192;52.002;5.956;2022-10-14T17:04:20;16.50;87.10
39045;DHT22;52192;52.002;5.956;2022-10-14T17:06:46;16.50;87.10
39045;DHT22;52192;52.002;5.956;2022-10-14T17:09:13;16.50;87.10
39045;DHT22;52192;52.002;5.956;2022-10-14T17:11:39;16.40;86.90
39045;DHT22;52192;52.002;5.956;2022-10-14T17:14:07;16.40;86.90
39045;DHT22;52192;52.002;5.956;2022-10-14T17:16:33;16.40;87.00
39045;DHT22;52192;52.002;5.956;2022-10-14T17:18:58;16.30;86.90
39045;DHT22;52192;52.002;5.956;2022-10-14T17:21:25;16.30;86.90
39045;DHT22;52192;52.002;5.956;2022-10-14T17:23:57;16.30;86.90
39045;DHT22;52192;52.002;5.956;2022-10-14T17:26:25;16.30;86.90
39045;DHT22;52192;52.002;5.956;2022-10-14T17:28:51;16.20;86.80
39045;DHT22;52192;52.002;5.956;2022-10-14T17:31:18;16.20;86.80
39045;DHT22;52192;52.002;5.956;2022-10-14T17:33:45;16.20;86.80
39045;DHT22;52192;52.002;5.956;2022-10-14T17:36:16;16.20;86.90
39045;DHT22;52192;52.002;5.956;2022-10-14T17:38:43;16.20;86.90
39045;DHT22;52192;52.002;5.956;2022-10-14T17:41:11;16.10;87.00
39045;DHT22;52192;52.002;5.956;2022-10-14T17:43:37;16.20;87.00
39045;DHT22;52192;52.002;5.956;2022-10-14T17:46:08;16.20;86.90
39045;DHT22;52192;52.002;5.956;2022-10-14T17:48:37;16.20;86.90
39045;DHT22;52192;52.002;5.956;2022-10-14T17:51:05;16.20;86.90
39045;DHT22;52192;52.002;5.956;2022-10-14T17:53:31;16.20;86.90
39045;DHT22;52192;52.002;5.956;2022-10-14T17:56:04;16.20;86.80
39045;DHT22;52192;52.002;5.956;2022-10-14T17:58:30;16.20;86.70
39045;DHT22;52192;52.002;5.956;2022-10-14T18:01:08;16.10;86.80
39045;DHT22;52192;52.002;5.956;2022-10-14T18:03:35;16.20;86.70
39045;DHT22;52192;52.002;5.956;2022-10-14T18:06:17;16.10;86.70
39045;DHT22;52192;52.002;5.956;2022-10-14T18:08:47;16.10;86.70
39045;DHT22;52192;52.002;5.956;2022-10-14T18:11:13;16.10;86.70
39045;DHT22;52192;52.002;5.956;2022-10-14T18:13:39;16.10;86.80
39045;DHT22;52192;52.002;5.956;2022-10-14T18:16:12;16.00;86.80
39045;DHT22;52192;52.002;5.956;2022-10-14T18:18:40;16.10;86.90
39045;DHT22;52192;52.002;5.956;2022-10-14T18:21:06;16.10;86.90